UTTT/TAS METAR and TAF weather

Enter ICAO airport designator
Station Type Date Time Source
UTTT METAR 2021/05/17 22:00 UTC NOAA

UTTT 172200Z 07008KT CAVOK 21/03 Q1010 R08R/CLRD70 NOSIG


Station Type Date Time Source
UTTT Decoded METAR 2021/05/17 22:00 UTC NOAA

Tashkent, Uzbekistan (UTTT) 41-16N 069-16E 488M
May 17, 2021 - 06:00 PM EDT / 2021.05.17 2200 UTC
Wind: from the ENE (070 degrees) at 9 MPH (8 KT):0
Visibility: greater than 7 mile(s):0
Temperature: 69 F (21 C)
Dew Point: 37 F (3 C)
Relative Humidity: 30%
Pressure (altimeter): 29.83 in. Hg (1010 hPa)
ob: UTTT 172200Z 07008KT CAVOK 21/03 Q1010 R08R/CLRD70 NOSIG
cycle: 22

Station Type Date Time Source
UTTT TAF 2021/05/17 18:09 UTC NOAA

TAF UTTT 171700Z 1718/1818 08010KT 7000 NSC
TEMPO 1806/1816 32015KT

Example: see airport list